sensor_id;sensor_type;location;lat;lon;timestamp;temperature;humidity
5061;DHT22;2549;52.128;21.068;2023-03-01T00:01:20;3.00;89.50
5061;DHT22;2549;52.128;21.068;2023-03-01T00:03:47;3.10;89.80
5061;DHT22;2549;52.128;21.068;2023-03-01T00:06:15;3.10;89.50
5061;DHT22;2549;52.128;21.068;2023-03-01T00:08:42;3.10;89.30
5061;DHT22;2549;52.128;21.068;2023-03-01T00:11:15;3.10;89.30
5061;DHT22;2549;52.128;21.068;2023-03-01T00:13:44;3.10;89.50
5061;DHT22;2549;52.128;21.068;2023-03-01T00:16:21;3.10;89.50
5061;DHT22;2549;52.128;21.068;2023-03-01T00:18:48;3.10;89.00
5061;DHT22;2549;52.128;21.068;2023-03-01T00:21:15;3.00;89.40
5061;DHT22;2549;52.128;21.068;2023-03-01T00:23:43;3.00;89.70
5061;DHT22;2549;52.128;21.068;2023-03-01T00:26:12;3.00;89.70
5061;DHT22;2549;52.128;21.068;2023-03-01T00:28:40;3.00;89.50
5061;DHT22;2549;52.128;21.068;2023-03-01T00:31:13;3.00;89.60
5061;DHT22;2549;52.128;21.068;2023-03-01T00:33:41;2.90;89.50
5061;DHT22;2549;52.128;21.068;2023-03-01T00:36:11;2.90;89.80
5061;DHT22;2549;52.128;21.068;2023-03-01T00:38:44;2.90;89.80
5061;DHT22;2549;52.128;21.068;2023-03-01T00:41:13;2.90;89.70
5061;DHT22;2549;52.128;21.068;2023-03-01T00:43:41;2.90;89.90
5061;DHT22;2549;52.128;21.068;2023-03-01T00:46:14;2.90;89.80
5061;DHT22;2549;52.128;21.068;2023-03-01T00:48:41;2.90;90.00
5061;DHT22;2549;52.128;21.068;2023-03-01T00:53:36;2.90;90.10
5061;DHT22;2549;52.128;21.068;2023-03-01T00:56:05;2.90;90.10
5061;DHT22;2549;52.128;21.068;2023-03-01T00:58:32;2.90;89.70
5061;DHT22;2549;52.128;21.068;2023-03-01T01:01:00;2.90;90.00
5061;DHT22;2549;52.128;21.068;2023-03-01T01:03:27;2.90;90.00
5061;DHT22;2549;52.128;21.068;2023-03-01T01:05:54;2.90;90.00
5061;DHT22;2549;52.128;21.068;2023-03-01T01:08:21;2.90;90.00
5061;DHT22;2549;52.128;21.068;2023-03-01T01:10:48;3.00;90.10
5061;DHT22;2549;52.128;21.068;2023-03-01T01:13:15;3.00;90.00
5061;DHT22;2549;52.128;21.068;2023-03-01T01:15:42;3.00;89.90
5061;DHT22;2549;52.128;21.068;2023-03-01T01:18:09;2.90;90.10
5061;DHT22;2549;52.128;21.068;2023-03-01T01:20:36;2.90;90.10
5061;DHT22;2549;52.128;21.068;2023-03-01T01:23:05;2.90;90.10
5061;DHT22;2549;52.128;21.068;2023-03-01T01:25:35;2.90;90.00
5061;DHT22;2549;52.128;21.068;2023-03-01T01:28:02;2.90;90.00
5061;DHT22;2549;52.128;21.068;2023-03-01T01:30:29;2.90;90.10
5061;DHT22;2549;52.128;21.068;2023-03-01T01:32:56;2.90;90.20
5061;DHT22;2549;52.128;21.068;2023-03-01T01:35:23;2.90;90.00
5061;DHT22;2549;52.128;21.068;2023-03-01T01:37:51;2.90;90.10
5061;DHT22;2549;52.128;21.068;2023-03-01T01:40:18;2.90;90.20
5061;DHT22;2549;52.128;21.068;2023-03-01T01:42:45;2.90;90.20
5061;DHT22;2549;52.128;21.068;2023-03-01T01:48:01;2.90;90.30
5061;DHT22;2549;52.128;21.068;2023-03-01T01:50:30;2.90;90.30
5061;DHT22;2549;52.128;21.068;2023-03-01T01:53:10;2.90;90.30
5061;DHT22;2549;52.128;21.068;2023-03-01T01:55:45;2.80;90.40
5061;DHT22;2549;52.128;21.068;2023-03-01T01:58:17;2.80;90.30
5061;DHT22;2549;52.128;21.068;2023-03-01T02:00:45;2.80;90.50
5061;DHT22;2549;52.128;21.068;2023-03-01T02:03:15;2.80;90.40
5061;DHT22;2549;52.128;21.068;2023-03-01T02:08:45;2.80;90.50
5061;DHT22;2549;52.128;21.068;2023-03-01T02:11:13;2.80;90.50
5061;DHT22;2549;52.128;21.068;2023-03-01T02:13:41;2.80;90.60
5061;DHT22;2549;52.128;21.068;2023-03-01T02:16:11;2.70;90.60
5061;DHT22;2549;52.128;21.068;2023-03-01T02:18:40;2.70;90.60
5061;DHT22;2549;52.128;21.068;2023-03-01T02:23:59;2.70;90.70
5061;DHT22;2549;52.128;21.068;2023-03-01T02:27:04;2.70;90.60
5061;DHT22;2549;52.128;21.068;2023-03-01T02:29:24;2.60;90.70
5061;DHT22;2549;52.128;21.068;2023-03-01T02:31:52;2.60;90.80
5061;DHT22;2549;52.128;21.068;2023-03-01T02:34:24;2.70;90.80
5061;DHT22;2549;52.128;21.068;2023-03-01T02:37:00;2.70;90.70
5061;DHT22;2549;52.128;21.068;2023-03-01T02:39:47;2.60;90.70
5061;DHT22;2549;52.128;21.068;2023-03-01T02:42:18;2.60;90.70
5061;DHT22;2549;52.128;21.068;2023-03-01T02:44:49;2.60;90.80
5061;DHT22;2549;52.128;21.068;2023-03-01T02:47:16;2.60;90.80
5061;DHT22;2549;52.128;21.068;2023-03-01T02:49:43;2.60;90.70
5061;DHT22;2549;52.128;21.068;2023-03-01T02:55:06;2.60;90.90
5061;DHT22;2549;52.128;21.068;2023-03-01T02:57:34;2.60;90.80
5061;DHT22;2549;52.128;21.068;2023-03-01T03:00:12;2.70;90.80
5061;DHT22;2549;52.128;21.068;2023-03-01T03:02:51;2.60;90.80
5061;DHT22;2549;52.128;21.068;2023-03-01T03:05:22;2.60;90.90
5061;DHT22;2549;52.128;21.068;2023-03-01T03:07:50;2.60;90.90
5061;DHT22;2549;52.128;21.068;2023-03-01T03:10:26;2.60;90.90
5061;DHT22;2549;52.128;21.068;2023-03-01T03:12:59;2.60;90.90
5061;DHT22;2549;52.128;21.068;2023-03-01T03:15:27;2.60;90.80
5061;DHT22;2549;52.128;21.068;2023-03-01T03:17:56;2.60;91.00
5061;DHT22;2549;52.128;21.068;2023-03-01T03:20:26;2.60;90.90
5061;DHT22;2549;52.128;21.068;2023-03-01T03:22:55;2.60;91.00
5061;DHT22;2549;52.128;21.068;2023-03-01T03:25:23;2.60;90.90
5061;DHT22;2549;52.128;21.068;2023-03-01T03:27:51;2.60;91.10
5061;DHT22;2549;52.128;21.068;2023-03-01T03:30:29;2.50;90.90
5061;DHT22;2549;52.128;21.068;2023-03-01T03:32:57;2.50;91.00
5061;DHT22;2549;52.128;21.068;2023-03-01T03:35:30;2.50;90.90
5061;DHT22;2549;52.128;21.068;2023-03-01T03:38:05;2.50;91.10
5061;DHT22;2549;52.128;21.068;2023-03-01T03:40:44;2.50;91.00
5061;DHT22;2549;52.128;21.068;2023-03-01T03:43:17;2.50;91.10
5061;DHT22;2549;52.128;21.068;2023-03-01T03:45:46;2.50;91.10
5061;DHT22;2549;52.128;21.068;2023-03-01T03:48:14;2.50;91.10
5061;DHT22;2549;52.128;21.068;2023-03-01T03:50:46;2.50;91.10
5061;DHT22;2549;52.128;21.068;2023-03-01T03:53:13;2.50;91.10
5061;DHT22;2549;52.128;21.068;2023-03-01T03:55:40;2.50;91.10
5061;DHT22;2549;52.128;21.068;2023-03-01T03:58:09;2.50;91.10
5061;DHT22;2549;52.128;21.068;2023-03-01T04:00:39;2.50;91.00
5061;DHT22;2549;52.128;21.068;2023-03-01T04:03:08;2.60;91.10
5061;DHT22;2549;52.128;21.068;2023-03-01T04:05:36;2.60;90.90
5061;DHT22;2549;52.128;21.068;2023-03-01T04:08:03;2.60;90.90
5061;DHT22;2549;52.128;21.068;2023-03-01T04:10:39;2.60;91.00
5061;DHT22;2549;52.128;21.068;2023-03-01T04:13:09;2.60;91.30
5061;DHT22;2549;52.128;21.068;2023-03-01T04:15:37;2.60;90.90
5061;DHT22;2549;52.128;21.068;2023-03-01T04:18:04;2.60;90.90
5061;DHT22;2549;52.128;21.068;2023-03-01T04:20:33;2.60;90.90
5061;DHT22;2549;52.128;21.068;2023-03-01T04:23:07;2.60;91.00
5061;DHT22;2549;52.128;21.068;2023-03-01T04:25:42;2.60;91.00
5061;DHT22;2549;52.128;21.068;2023-03-01T04:28:11;2.60;91.00
5061;DHT22;2549;52.128;21.068;2023-03-01T04:30:39;2.60;90.90
5061;DHT22;2549;52.128;21.068;2023-03-01T04:33:07;2.60;91.00
5061;DHT22;2549;52.128;21.068;2023-03-01T04:35:36;2.60;91.00
5061;DHT22;2549;52.128;21.068;2023-03-01T04:38:04;2.60;91.00
5061;DHT22;2549;52.128;21.068;2023-03-01T04:40:32;2.60;91.00
5061;DHT22;2549;52.128;21.068;2023-03-01T04:42:59;2.60;91.10
5061;DHT22;2549;52.128;21.068;2023-03-01T04:45:26;2.60;91.20
5061;DHT22;2549;52.128;21.068;2023-03-01T04:47:54;2.60;91.10
5061;DHT22;2549;52.128;21.068;2023-03-01T04:50:25;2.50;91.00
5061;DHT22;2549;52.128;21.068;2023-03-01T04:52:52;2.60;91.10
5061;DHT22;2549;52.128;21.068;2023-03-01T04:55:20;2.50;91.10
5061;DHT22;2549;52.128;21.068;2023-03-01T04:57:47;2.50;91.10
5061;DHT22;2549;52.128;21.068;2023-03-01T05:00:15;2.50;91.20
5061;DHT22;2549;52.128;21.068;2023-03-01T05:02:54;2.50;91.30
5061;DHT22;2549;52.128;21.068;2023-03-01T05:05:27;2.50;91.20
5061;DHT22;2549;52.128;21.068;2023-03-01T05:07:56;2.50;91.10
5061;DHT22;2549;52.128;21.068;2023-03-01T05:10:26;2.50;91.30
5061;DHT22;2549;52.128;21.068;2023-03-01T05:12:56;2.60;91.40
5061;DHT22;2549;52.128;21.068;2023-03-01T05:15:27;2.60;91.20
5061;DHT22;2549;52.128;21.068;2023-03-01T05:17:57;2.60;91.20
5061;DHT22;2549;52.128;21.068;2023-03-01T05:20:27;2.60;91.10
5061;DHT22;2549;52.128;21.068;2023-03-01T05:22:57;2.50;91.20
5061;DHT22;2549;52.128;21.068;2023-03-01T05:25:26;2.60;91.20
5061;DHT22;2549;52.128;21.068;2023-03-01T05:27:53;2.60;91.10
5061;DHT22;2549;52.128;21.068;2023-03-01T05:30:20;2.60;91.20
5061;DHT22;2549;52.128;21.068;2023-03-01T05:32:49;2.60;91.20
5061;DHT22;2549;52.128;21.068;2023-03-01T05:35:23;2.60;91.10
5061;DHT22;2549;52.128;21.068;2023-03-01T05:37:54;2.60;91.10
5061;DHT22;2549;52.128;21.068;2023-03-01T05:40:23;2.60;91.10
5061;DHT22;2549;52.128;21.068;2023-03-01T05:42:53;2.60;91.10
5061;DHT22;2549;52.128;21.068;2023-03-01T05:45:23;2.70;91.10
5061;DHT22;2549;52.128;21.068;2023-03-01T05:47:50;2.70;91.10
5061;DHT22;2549;52.128;21.068;2023-03-01T05:50:24;2.70;91.20
5061;DHT22;2549;52.128;21.068;2023-03-01T05:52:59;2.70;91.20
5061;DHT22;2549;52.128;21.068;2023-03-01T05:55:28;2.70;91.20
5061;DHT22;2549;52.128;21.068;2023-03-01T05:57:55;2.70;91.10
5061;DHT22;2549;52.128;21.068;2023-03-01T06:00:24;2.70;91.10
5061;DHT22;2549;52.128;21.068;2023-03-01T06:02:52;2.70;91.40
5061;DHT22;2549;52.128;21.068;2023-03-01T06:05:20;2.60;91.40
5061;DHT22;2549;52.128;21.068;2023-03-01T06:07:47;2.60;91.50
5061;DHT22;2549;52.128;21.068;2023-03-01T06:10:15;2.70;91.80
5061;DHT22;2549;52.128;21.068;2023-03-01T06:12:43;2.70;91.50
5061;DHT22;2549;52.128;21.068;2023-03-01T06:15:12;2.70;91.50
5061;DHT22;2549;52.128;21.068;2023-03-01T06:17:42;2.70;91.50
5061;DHT22;2549;52.128;21.068;2023-03-01T06:20:18;2.80;91.50
5061;DHT22;2549;52.128;21.068;2023-03-01T06:22:46;2.80;91.40
5061;DHT22;2549;52.128;21.068;2023-03-01T06:25:16;2.80;91.50
5061;DHT22;2549;52.128;21.068;2023-03-01T06:27:44;2.80;91.50
5061;DHT22;2549;52.128;21.068;2023-03-01T06:30:13;2.90;91.50
5061;DHT22;2549;52.128;21.068;2023-03-01T06:32:43;2.90;91.40
5061;DHT22;2549;52.128;21.068;2023-03-01T06:35:12;2.90;91.40
5061;DHT22;2549;52.128;21.068;2023-03-01T06:37:40;2.90;91.40
5061;DHT22;2549;52.128;21.068;2023-03-01T06:40:09;2.90;91.50
5061;DHT22;2549;52.128;21.068;2023-03-01T06:42:39;3.00;91.60
5061;DHT22;2549;52.128;21.068;2023-03-01T06:45:07;3.00;91.60
5061;DHT22;2549;52.128;21.068;2023-03-01T06:47:34;3.00;91.40
5061;DHT22;2549;52.128;21.068;2023-03-01T06:50:02;3.00;91.60
5061;DHT22;2549;52.128;21.068;2023-03-01T06:52:29;3.00;91.70
5061;DHT22;2549;52.128;21.068;2023-03-01T06:54:56;3.00;91.70
5061;DHT22;2549;52.128;21.068;2023-03-01T06:57:23;3.10;91.70
5061;DHT22;2549;52.128;21.068;2023-03-01T06:59:50;3.10;91.80
5061;DHT22;2549;52.128;21.068;2023-03-01T07:02:17;3.10;91.80
5061;DHT22;2549;52.128;21.068;2023-03-01T07:04:43;3.10;91.80
5061;DHT22;2549;52.128;21.068;2023-03-01T07:07:10;3.20;91.80
5061;DHT22;2549;52.128;21.068;2023-03-01T07:09:37;3.20;91.80
5061;DHT22;2549;52.128;21.068;2023-03-01T07:12:04;3.20;91.80
5061;DHT22;2549;52.128;21.068;2023-03-01T07:14:31;3.30;91.90
5061;DHT22;2549;52.128;21.068;2023-03-01T07:16:58;3.30;91.80
5061;DHT22;2549;52.128;21.068;2023-03-01T07:19:25;3.30;91.60
5061;DHT22;2549;52.128;21.068;2023-03-01T07:21:52;3.20;91.90
5061;DHT22;2549;52.128;21.068;2023-03-01T07:24:19;3.20;91.90
5061;DHT22;2549;52.128;21.068;2023-03-01T07:26:51;3.30;91.90
5061;DHT22;2549;52.128;21.068;2023-03-01T07:29:20;3.30;91.90
5061;DHT22;2549;52.128;21.068;2023-03-01T07:31:47;3.20;92.00
5061;DHT22;2549;52.128;21.068;2023-03-01T07:34:14;3.30;92.10
5061;DHT22;2549;52.128;21.068;2023-03-01T07:36:40;3.40;92.10
5061;DHT22;2549;52.128;21.068;2023-03-01T07:39:10;3.50;92.10
5061;DHT22;2549;52.128;21.068;2023-03-01T07:41:37;3.60;92.00
5061;DHT22;2549;52.128;21.068;2023-03-01T07:44:04;3.60;92.00
5061;DHT22;2549;52.128;21.068;2023-03-01T07:46:32;3.60;92.10
5061;DHT22;2549;52.128;21.068;2023-03-01T07:48:59;3.60;92.00
5061;DHT22;2549;52.128;21.068;2023-03-01T07:51:26;3.70;92.00
5061;DHT22;2549;52.128;21.068;2023-03-01T07:53:53;3.70;91.90
5061;DHT22;2549;52.128;21.068;2023-03-01T07:56:20;3.70;91.70
5061;DHT22;2549;52.128;21.068;2023-03-01T07:58:51;3.60;91.90
5061;DHT22;2549;52.128;21.068;2023-03-01T08:01:20;3.70;91.80
5061;DHT22;2549;52.128;21.068;2023-03-01T08:03:48;3.70;91.90
5061;DHT22;2549;52.128;21.068;2023-03-01T08:06:16;3.80;91.90
5061;DHT22;2549;52.128;21.068;2023-03-01T08:08:43;3.80;91.90
5061;DHT22;2549;52.128;21.068;2023-03-01T08:11:12;3.80;91.90
5061;DHT22;2549;52.128;21.068;2023-03-01T08:13:39;3.90;92.00
5061;DHT22;2549;52.128;21.068;2023-03-01T08:16:12;4.00;92.00
5061;DHT22;2549;52.128;21.068;2023-03-01T08:18:40;4.00;92.10
5061;DHT22;2549;52.128;21.068;2023-03-01T08:21:10;4.00;92.10
5061;DHT22;2549;52.128;21.068;2023-03-01T08:23:37;4.00;92.10
5061;DHT22;2549;52.128;21.068;2023-03-01T08:26:13;4.10;92.00
5061;DHT22;2549;52.128;21.068;2023-03-01T08:28:41;4.10;91.90
5061;DHT22;2549;52.128;21.068;2023-03-01T08:31:22;4.20;92.20
5061;DHT22;2549;52.128;21.068;2023-03-01T08:33:51;4.30;92.00
5061;DHT22;2549;52.128;21.068;2023-03-01T08:36:27;4.30;92.00
5061;DHT22;2549;52.128;21.068;2023-03-01T08:38:55;4.30;92.10
5061;DHT22;2549;52.128;21.068;2023-03-01T08:41:22;4.40;92.00
5061;DHT22;2549;52.128;21.068;2023-03-01T08:43:49;4.50;92.00
5061;DHT22;2549;52.128;21.068;2023-03-01T08:46:16;4.50;92.10
5061;DHT22;2549;52.128;21.068;2023-03-01T08:48:43;4.60;92.00
5061;DHT22;2549;52.128;21.068;2023-03-01T08:51:15;4.60;92.10
5061;DHT22;2549;52.128;21.068;2023-03-01T08:53:44;4.70;92.10
5061;DHT22;2549;52.128;21.068;2023-03-01T08:56:12;4.80;92.20
5061;DHT22;2549;52.128;21.068;2023-03-01T08:58:39;4.90;92.20
5061;DHT22;2549;52.128;21.068;2023-03-01T09:01:08;4.90;92.20
5061;DHT22;2549;52.128;21.068;2023-03-01T09:03:36;4.90;92.20
5061;DHT22;2549;52.128;21.068;2023-03-01T09:06:04;5.00;92.30
5061;DHT22;2549;52.128;21.068;2023-03-01T09:08:34;5.00;92.10
5061;DHT22;2549;52.128;21.068;2023-03-01T09:11:07;5.00;92.20
5061;DHT22;2549;52.128;21.068;2023-03-01T09:13:35;5.10;92.40
5061;DHT22;2549;52.128;21.068;2023-03-01T09:16:04;5.20;92.30
5061;DHT22;2549;52.128;21.068;2023-03-01T09:18:31;5.20;92.30
5061;DHT22;2549;52.128;21.068;2023-03-01T09:23:28;5.30;92.40
5061;DHT22;2549;52.128;21.068;2023-03-01T09:25:55;5.30;92.50
5061;DHT22;2549;52.128;21.068;2023-03-01T09:28:22;5.40;92.70
5061;DHT22;2549;52.128;21.068;2023-03-01T09:30:58;5.40;92.70
5061;DHT22;2549;52.128;21.068;2023-03-01T09:33:27;5.50;92.60
5061;DHT22;2549;52.128;21.068;2023-03-01T09:36:02;5.60;92.60
5061;DHT22;2549;52.128;21.068;2023-03-01T09:38:30;5.60;92.50
5061;DHT22;2549;52.128;21.068;2023-03-01T09:40:57;5.60;92.60
5061;DHT22;2549;52.128;21.068;2023-03-01T09:46:09;5.70;92.50
5061;DHT22;2549;52.128;21.068;2023-03-01T09:49:07;5.70;92.70
5061;DHT22;2549;52.128;21.068;2023-03-01T09:51:36;5.70;92.80
5061;DHT22;2549;52.128;21.068;2023-03-01T09:54:04;5.80;92.80
5061;DHT22;2549;52.128;21.068;2023-03-01T09:56:50;5.80;92.80
5061;DHT22;2549;52.128;21.068;2023-03-01T09:59:33;5.80;92.80
5061;DHT22;2549;52.128;21.068;2023-03-01T10:09:46;5.90;92.80
5061;DHT22;2549;52.128;21.068;2023-03-01T10:12:19;6.00;92.80
5061;DHT22;2549;52.128;21.068;2023-03-01T10:15:07;6.00;92.90
5061;DHT22;2549;52.128;21.068;2023-03-01T10:17:56;6.00;92.90
5061;DHT22;2549;52.128;21.068;2023-03-01T10:20:28;6.10;92.90
5061;DHT22;2549;52.128;21.068;2023-03-01T10:22:56;6.10;92.90
5061;DHT22;2549;52.128;21.068;2023-03-01T10:31:15;6.20;93.10
5061;DHT22;2549;52.128;21.068;2023-03-01T10:33:45;6.20;93.10
5061;DHT22;2549;52.128;21.068;2023-03-01T10:36:14;6.20;93.10
5061;DHT22;2549;52.128;21.068;2023-03-01T10:39:17;6.20;93.10
5061;DHT22;2549;52.128;21.068;2023-03-01T10:41:58;6.30;93.20
5061;DHT22;2549;52.128;21.068;2023-03-01T10:44:41;6.30;93.10
5061;DHT22;2549;52.128;21.068;2023-03-01T10:47:38;6.30;93.10
5061;DHT22;2549;52.128;21.068;2023-03-01T10:50:10;6.30;93.10
5061;DHT22;2549;52.128;21.068;2023-03-01T10:52:57;6.40;93.20
5061;DHT22;2549;52.128;21.068;2023-03-01T10:55:26;6.40;93.20
5061;DHT22;2549;52.128;21.068;2023-03-01T11:03:18;6.50;93.20
5061;DHT22;2549;52.128;21.068;2023-03-01T11:06:35;6.50;93.10
5061;DHT22;2549;52.128;21.068;2023-03-01T11:08:43;6.50;93.00
5061;DHT22;2549;52.128;21.068;2023-03-01T11:11:23;6.60;93.20
5061;DHT22;2549;52.128;21.068;2023-03-01T11:16:38;6.60;93.10
5061;DHT22;2549;52.128;21.068;2023-03-01T11:24:27;6.80;93.00
5061;DHT22;2549;52.128;21.068;2023-03-01T11:26:55;6.80;93.00
5061;DHT22;2549;52.128;21.068;2023-03-01T11:29:35;6.80;93.10
5061;DHT22;2549;52.128;21.068;2023-03-01T11:32:15;6.90;93.10
5061;DHT22;2549;52.128;21.068;2023-03-01T11:34:53;6.90;93.10
5061;DHT22;2549;52.128;21.068;2023-03-01T11:37:44;7.00;93.10
5061;DHT22;2549;52.128;21.068;2023-03-01T11:40:22;7.00;93.10
5061;DHT22;2549;52.128;21.068;2023-03-01T11:45:24;7.10;93.00
5061;DHT22;2549;52.128;21.068;2023-03-01T11:50:48;7.20;93.00
5061;DHT22;2549;52.128;21.068;2023-03-01T12:07:46;7.40;93.00
5061;DHT22;2549;52.128;21.068;2023-03-01T12:10:27;7.40;93.10
5061;DHT22;2549;52.128;21.068;2023-03-01T12:16:16;7.50;93.20
5061;DHT22;2549;52.128;21.068;2023-03-01T12:38:40;7.80;93.10
5061;DHT22;2549;52.128;21.068;2023-03-01T12:43:55;8.00;92.90
5061;DHT22;2549;52.128;21.068;2023-03-01T12:55:02;7.90;93.10
5061;DHT22;2549;52.128;21.068;2023-03-01T12:57:40;7.90;93.20
5061;DHT22;2549;52.128;21.068;2023-03-01T13:00:27;8.00;93.20
5061;DHT22;2549;52.128;21.068;2023-03-01T13:03:21;8.10;93.20
5061;DHT22;2549;52.128;21.068;2023-03-01T13:11:20;8.20;93.00
5061;DHT22;2549;52.128;21.068;2023-03-01T13:13:48;8.20;93.20
5061;DHT22;2549;52.128;21.068;2023-03-01T13:16:40;8.20;93.20
5061;DHT22;2549;52.128;21.068;2023-03-01T13:21:45;8.20;93.30
5061;DHT22;2549;52.128;21.068;2023-03-01T13:24:57;8.20;93.20
5061;DHT22;2549;52.128;21.068;2023-03-01T13:27:27;8.30;93.20
5061;DHT22;2549;52.128;21.068;2023-03-01T13:30:00;8.30;93.10
5061;DHT22;2549;52.128;21.068;2023-03-01T13:32:31;8.30;93.20
5061;DHT22;2549;52.128;21.068;2023-03-01T13:37:46;8.40;93.30
5061;DHT22;2549;52.128;21.068;2023-03-01T13:42:49;8.40;93.30
5061;DHT22;2549;52.128;21.068;2023-03-01T13:45:42;8.40;93.20
5061;DHT22;2549;52.128;21.068;2023-03-01T13:51:09;8.50;93.30
5061;DHT22;2549;52.128;21.068;2023-03-01T13:53:43;8.50;93.50
5061;DHT22;2549;52.128;21.068;2023-03-01T13:56:26;8.50;93.50
5061;DHT22;2549;52.128;21.068;2023-03-01T13:58:59;8.50;93.40
5061;DHT22;2549;52.128;21.068;2023-03-01T14:01:35;8.50;93.50
5061;DHT22;2549;52.128;21.068;2023-03-01T14:04:14;8.50;93.50
5061;DHT22;2549;52.128;21.068;2023-03-01T14:06:44;8.60;93.50
5061;DHT22;2549;52.128;21.068;2023-03-01T14:09:27;8.60;93.60
5061;DHT22;2549;52.128;21.068;2023-03-01T14:20:00;8.60;93.80
5061;DHT22;2549;52.128;21.068;2023-03-01T14:22:35;8.60;93.80
5061;DHT22;2549;52.128;21.068;2023-03-01T14:27:52;8.60;93.90
5061;DHT22;2549;52.128;21.068;2023-03-01T14:30:32;8.60;93.90
5061;DHT22;2549;52.128;21.068;2023-03-01T14:33:03;8.60;94.00
5061;DHT22;2549;52.128;21.068;2023-03-01T14:35:35;8.60;94.00
5061;DHT22;2549;52.128;21.068;2023-03-01T14:38:03;8.60;94.00
5061;DHT22;2549;52.128;21.068;2023-03-01T14:40:33;8.70;94.00
5061;DHT22;2549;52.128;21.068;2023-03-01T14:43:08;8.70;93.80
5061;DHT22;2549;52.128;21.068;2023-03-01T14:45:36;8.70;93.80
5061;DHT22;2549;52.128;21.068;2023-03-01T14:48:05;8.70;93.80
5061;DHT22;2549;52.128;21.068;2023-03-01T14:50:35;8.70;93.70
5061;DHT22;2549;52.128;21.068;2023-03-01T14:53:05;8.80;93.80
5061;DHT22;2549;52.128;21.068;2023-03-01T14:55:33;8.70;93.70
5061;DHT22;2549;52.128;21.068;2023-03-01T14:58:04;8.80;93.80
5061;DHT22;2549;52.128;21.068;2023-03-01T15:00:33;8.70;93.70
5061;DHT22;2549;52.128;21.068;2023-03-01T15:03:06;8.70;93.80
5061;DHT22;2549;52.128;21.068;2023-03-01T15:05:36;8.70;93.70
5061;DHT22;2549;52.128;21.068;2023-03-01T15:08:04;8.80;93.80
5061;DHT22;2549;52.128;21.068;2023-03-01T15:10:35;8.80;93.80
5061;DHT22;2549;52.128;21.068;2023-03-01T15:13:23;8.80;93.80
5061;DHT22;2549;52.128;21.068;2023-03-01T15:16:00;8.80;93.80
5061;DHT22;2549;52.128;21.068;2023-03-01T15:18:29;8.80;93.90
5061;DHT22;2549;52.128;21.068;2023-03-01T15:21:06;8.80;93.70
5061;DHT22;2549;52.128;21.068;2023-03-01T15:23:34;8.80;93.70
5061;DHT22;2549;52.128;21.068;2023-03-01T15:26:01;8.80;93.80
5061;DHT22;2549;52.128;21.068;2023-03-01T15:28:30;8.80;93.70
5061;DHT22;2549;52.128;21.068;2023-03-01T15:33:44;8.80;93.70
5061;DHT22;2549;52.128;21.068;2023-03-01T15:36:41;8.80;93.70
5061;DHT22;2549;52.128;21.068;2023-03-01T15:39:52;8.80;93.70
5061;DHT22;2549;52.128;21.068;2023-03-01T15:47:40;8.70;93.70
5061;DHT22;2549;52.128;21.068;2023-03-01T15:50:34;8.60;93.70
5061;DHT22;2549;52.128;21.068;2023-03-01T15:53:06;8.60;93.80
5061;DHT22;2549;52.128;21.068;2023-03-01T15:55:34;8.60;93.80
5061;DHT22;2549;52.128;21.068;2023-03-01T15:58:15;8.60;93.80
5061;DHT22;2549;52.128;21.068;2023-03-01T16:00:44;8.60;93.80
5061;DHT22;2549;52.128;21.068;2023-03-01T16:03:26;8.60;93.80
5061;DHT22;2549;52.128;21.068;2023-03-01T16:05:53;8.60;93.80
5061;DHT22;2549;52.128;21.068;2023-03-01T16:08:20;8.60;93.80
5061;DHT22;2549;52.128;21.068;2023-03-01T16:10:47;8.50;93.80
5061;DHT22;2549;52.128;21.068;2023-03-01T16:13:16;8.50;93.80
5061;DHT22;2549;52.128;21.068;2023-03-01T16:15:44;8.50;93.80
5061;DHT22;2549;52.128;21.068;2023-03-01T16:18:11;8.50;93.90
5061;DHT22;2549;52.128;21.068;2023-03-01T16:20:39;8.50;93.90
5061;DHT22;2549;52.128;21.068;2023-03-01T16:23:08;8.50;94.00
5061;DHT22;2549;52.128;21.068;2023-03-01T16:25:35;8.50;94.00
5061;DHT22;2549;52.128;21.068;2023-03-01T16:28:03;8.40;93.90
5061;DHT22;2549;52.128;21.068;2023-03-01T16:30:39;8.40;94.00
5061;DHT22;2549;52.128;21.068;2023-03-01T16:33:07;8.40;93.90
5061;DHT22;2549;52.128;21.068;2023-03-01T16:35:54;8.40;93.90
5061;DHT22;2549;52.128;21.068;2023-03-01T16:38:22;8.40;94.00
5061;DHT22;2549;52.128;21.068;2023-03-01T16:40:50;8.40;94.00
5061;DHT22;2549;52.128;21.068;2023-03-01T16:43:18;8.30;93.90
5061;DHT22;2549;52.128;21.068;2023-03-01T16:45:45;8.30;94.00
5061;DHT22;2549;52.128;21.068;2023-03-01T16:48:13;8.30;94.00
5061;DHT22;2549;52.128;21.068;2023-03-01T16:50:40;8.30;94.00
5061;DHT22;2549;52.128;21.068;2023-03-01T16:53:07;8.30;94.10
5061;DHT22;2549;52.128;21.068;2023-03-01T16:55:34;8.30;94.10
5061;DHT22;2549;52.128;21.068;2023-03-01T16:58:01;8.20;94.00
5061;DHT22;2549;52.128;21.068;2023-03-01T17:00:28;8.20;94.10
5061;DHT22;2549;52.128;21.068;2023-03-01T17:02:57;8.20;94.10
5061;DHT22;2549;52.128;21.068;2023-03-01T17:05:24;8.10;94.10
5061;DHT22;2549;52.128;21.068;2023-03-01T17:07:52;8.20;94.20
5061;DHT22;2549;52.128;21.068;2023-03-01T17:10:22;8.10;94.10
5061;DHT22;2549;52.128;21.068;2023-03-01T17:12:49;8.00;94.10
5061;DHT22;2549;52.128;21.068;2023-03-01T17:15:17;8.10;94.20
5061;DHT22;2549;52.128;21.068;2023-03-01T17:17:44;8.00;94.10
5061;DHT22;2549;52.128;21.068;2023-03-01T17:20:11;8.00;94.10
5061;DHT22;2549;52.128;21.068;2023-03-01T17:22:38;8.00;94.10
5061;DHT22;2549;52.128;21.068;2023-03-01T17:25:08;8.00;94.10
5061;DHT22;2549;52.128;21.068;2023-03-01T17:27:37;7.90;94.10
5061;DHT22;2549;52.128;21.068;2023-03-01T17:30:06;7.90;94.10
5061;DHT22;2549;52.128;21.068;2023-03-01T17:32:34;7.90;94.10
5061;DHT22;2549;52.128;21.068;2023-03-01T17:35:01;7.90;94.10
5061;DHT22;2549;52.128;21.068;2023-03-01T17:37:28;7.80;94.10
5061;DHT22;2549;52.128;21.068;2023-03-01T17:39:56;7.90;94.10
5061;DHT22;2549;52.128;21.068;2023-03-01T17:42:23;7.80;94.10
5061;DHT22;2549;52.128;21.068;2023-03-01T17:44:50;7.80;94.10
5061;DHT22;2549;52.128;21.068;2023-03-01T17:47:17;7.70;94.10
5061;DHT22;2549;52.128;21.068;2023-03-01T17:49:44;7.70;94.20
5061;DHT22;2549;52.128;21.068;2023-03-01T17:52:11;7.70;94.20
5061;DHT22;2549;52.128;21.068;2023-03-01T17:54:38;7.70;94.20
5061;DHT22;2549;52.128;21.068;2023-03-01T17:57:06;7.70;94.20
5061;DHT22;2549;52.128;21.068;2023-03-01T17:59:35;7.60;94.20
5061;DHT22;2549;52.128;21.068;2023-03-01T18:02:03;7.60;94.30
5061;DHT22;2549;52.128;21.068;2023-03-01T18:04:30;7.60;94.60
5061;DHT22;2549;52.128;21.068;2023-03-01T18:06:58;7.60;94.30
5061;DHT22;2549;52.128;21.068;2023-03-01T18:09:28;7.50;94.40
5061;DHT22;2549;52.128;21.068;2023-03-01T18:11:56;7.50;94.40
5061;DHT22;2549;52.128;21.068;2023-03-01T18:14:23;7.50;94.50
5061;DHT22;2549;52.128;21.068;2023-03-01T18:17:00;7.50;94.60
5061;DHT22;2549;52.128;21.068;2023-03-01T18:19:29;7.50;94.60
5061;DHT22;2549;52.128;21.068;2023-03-01T18:21:56;7.40;94.60
5061;DHT22;2549;52.128;21.068;2023-03-01T18:24:23;7.40;95.00
5061;DHT22;2549;52.128;21.068;2023-03-01T18:26:50;7.40;94.70
5061;DHT22;2549;52.128;21.068;2023-03-01T18:29:17;7.40;94.80
5061;DHT22;2549;52.128;21.068;2023-03-01T18:31:44;7.40;94.80
5061;DHT22;2549;52.128;21.068;2023-03-01T18:34:12;7.40;94.80
5061;DHT22;2549;52.128;21.068;2023-03-01T18:36:39;7.40;94.80
5061;DHT22;2549;52.128;21.068;2023-03-01T18:39:10;7.40;94.90
5061;DHT22;2549;52.128;21.068;2023-03-01T18:41:36;7.40;94.90